createdAt,value
2022-11-28T00:01:29.905Z,40.27
2022-11-28T00:03:57.438Z,39.77
2022-11-28T00:06:26.906Z,39.57
2022-11-28T00:08:54.888Z,40.70
2022-11-28T00:11:22.265Z,36.83
2022-11-28T00:13:49.634Z,38.87
2022-11-28T00:16:22.055Z,36.93
2022-11-28T00:18:51.110Z,41.70
2022-11-28T00:21:19.618Z,39.13
2022-11-28T00:23:48.293Z,37.00
2022-11-28T00:26:24.721Z,34.47
2022-11-28T00:28:52.867Z,37.00
2022-11-28T00:31:24.628Z,32.57
2022-11-28T00:33:52.685Z,35.43
2022-11-28T00:36:21.545Z,39.57
2022-11-28T00:38:49.730Z,35.83
2022-11-28T00:41:20.107Z,35.07
2022-11-28T00:43:48.745Z,33.57
2022-11-28T00:46:17.096Z,32.70
2022-11-28T00:48:44.871Z,34.20
2022-11-28T00:51:19.509Z,35.00
2022-11-28T00:53:48.680Z,34.30
2022-11-28T00:56:18.591Z,32.40
2022-11-28T00:58:49.036Z,29.67
2022-11-28T01:01:19.865Z,29.10
2022-11-28T01:03:48.884Z,27.10
2022-11-28T01:06:34.548Z,28.60
2022-11-28T01:09:05.361Z,28.17
2022-11-28T01:11:32.974Z,28.97
2022-11-28T01:14:01.920Z,27.80
2022-11-28T01:16:29.981Z,28.70
2022-11-28T01:18:57.661Z,27.03
2022-11-28T01:21:25.483Z,30.40
2022-11-28T01:23:52.861Z,28.77
2022-11-28T01:26:23.260Z,25.13
2022-11-28T01:28:50.722Z,27.73
2022-11-28T01:31:20.568Z,27.90
2022-11-28T01:33:48.485Z,27.50
2022-11-28T01:36:16.729Z,25.07
2022-11-28T01:38:44.608Z,26.60
2022-11-28T01:41:12.332Z,28.03
2022-11-28T01:44:01.811Z,27.70
2022-11-28T01:46:30.199Z,27.10
2022-11-28T01:49:07.577Z,35.63
2022-11-28T01:51:36.201Z,30.40
2022-11-28T01:54:04.004Z,28.60
2022-11-28T01:56:47.802Z,27.67
2022-11-28T01:59:16.054Z,26.47
2022-11-28T02:01:44.843Z,28.73
2022-11-28T02:04:14.082Z,27.23
2022-11-28T02:06:42.301Z,25.87
2022-11-28T02:09:14.265Z,27.53
2022-11-28T02:11:50.534Z,29.90
2022-11-28T02:14:42.335Z,29.30
2022-11-28T02:17:46.201Z,26.33
2022-11-28T02:20:19.773Z,29.77
2022-11-28T02:22:55.827Z,31.60
2022-11-28T02:25:38.307Z,29.37
2022-11-28T02:28:43.614Z,27.03
2022-11-28T02:31:24.495Z,29.43
2022-11-28T02:34:06.125Z,29.30
2022-11-28T02:36:45.010Z,29.63
2022-11-28T02:39:35.797Z,29.00
2022-11-28T02:42:10.707Z,29.27
2022-11-28T02:44:52.567Z,31.13
2022-11-28T02:47:33.938Z,26.10
2022-11-28T02:50:13.106Z,28.03
2022-11-28T02:52:42.438Z,31.10
2022-11-28T02:55:10.875Z,26.20
2022-11-28T02:57:47.671Z,26.60
2022-11-28T03:00:34.056Z,27.97
2022-11-28T03:03:27.226Z,26.87
2022-11-28T03:06:18.840Z,27.57
2022-11-28T03:09:13.864Z,27.87
2022-11-28T03:11:52.502Z,26.57
2022-11-28T03:14:38.282Z,26.33
2022-11-28T03:17:19.247Z,27.07
2022-11-28T03:19:49.606Z,25.30
2022-11-28T03:22:32.844Z,25.70
2022-11-28T03:25:25.139Z,28.63
2022-11-28T03:28:06.032Z,26.33
2022-11-28T03:30:44.668Z,28.47
2022-11-28T03:33:14.137Z,26.60
2022-11-28T03:35:49.844Z,28.70
2022-11-28T03:38:32.187Z,27.20
2022-11-28T03:41:07.124Z,26.77
2022-11-28T03:43:41.440Z,25.57
2022-11-28T03:46:13.952Z,23.63
2022-11-28T03:48:46.390Z,24.47
2022-11-28T03:51:35.472Z,25.87
2022-11-28T03:54:05.909Z,24.03
2022-11-28T03:56:41.969Z,23.20
2022-11-28T03:59:19.827Z,25.67
2022-11-28T04:01:53.045Z,24.63
2022-11-28T04:04:30.428Z,25.53
2022-11-28T04:07:34.270Z,24.00
2022-11-28T04:10:12.624Z,24.47
2022-11-28T04:13:02.797Z,23.90
2022-11-28T04:15:56.709Z,24.10
2022-11-28T04:18:38.187Z,21.93
2022-11-28T04:21:25.384Z,22.77
2022-11-28T04:23:56.520Z,22.00
2022-11-28T04:26:30.496Z,24.80
2022-11-28T04:29:00.316Z,22.33
2022-11-28T04:31:28.584Z,20.93
2022-11-28T04:34:01.044Z,22.33
2022-11-28T04:36:30.256Z,21.83
2022-11-28T04:38:59.547Z,22.97
2022-11-28T04:41:33.583Z,20.10
2022-11-28T04:44:27.984Z,22.03
2022-11-28T04:46:56.619Z,22.50
2022-11-28T04:49:27.505Z,23.53
2022-11-28T04:52:00.674Z,23.33
2022-11-28T04:54:30.895Z,22.43
2022-11-28T04:57:03.963Z,20.57
2022-11-28T04:59:35.197Z,21.47
2022-11-28T05:02:04.896Z,21.40
2022-11-28T05:04:37.347Z,18.50
2022-11-28T05:07:07.158Z,19.23
2022-11-28T05:09:35.175Z,19.57
2022-11-28T05:12:03.424Z,19.30
2022-11-28T05:14:30.834Z,19.70
2022-11-28T05:16:58.201Z,20.20
2022-11-28T05:19:25.552Z,20.77
2022-11-28T05:21:55.572Z,18.87
2022-11-28T05:24:25.727Z,19.33
2022-11-28T05:26:56.518Z,19.37
2022-11-28T05:29:25.429Z,19.60
2022-11-28T05:31:52.881Z,20.83
2022-11-28T05:34:20.295Z,18.70
2022-11-28T05:36:47.637Z,18.87
2022-11-28T05:39:14.982Z,18.17
2022-11-28T05:41:42.355Z,18.87
2022-11-28T05:44:10.288Z,18.33
2022-11-28T05:46:37.697Z,18.60
2022-11-28T05:49:05.075Z,17.20
2022-11-28T05:51:32.760Z,15.80
2022-11-28T05:54:00.124Z,16.83
2022-11-28T05:56:27.507Z,18.20
2022-11-28T05:58:55.176Z,16.73
2022-11-28T06:01:28.799Z,16.93
2022-11-28T06:04:00.973Z,16.27
2022-11-28T06:06:30.970Z,16.00
2022-11-28T06:08:58.987Z,15.57
2022-11-28T06:11:29.583Z,16.93
2022-11-28T06:13:57.143Z,17.67
2022-11-28T06:16:26.800Z,16.73
2022-11-28T06:18:55.868Z,17.50
2022-11-28T06:21:23.748Z,15.33
2022-11-28T06:23:51.503Z,16.40
2022-11-28T06:26:21.566Z,16.90
2022-11-28T06:28:49.684Z,16.47
2022-11-28T06:31:19.759Z,16.23
2022-11-28T06:33:47.540Z,16.40
2022-11-28T06:36:16.505Z,16.10
2022-11-28T06:38:44.256Z,16.50
2022-11-28T06:41:15.736Z,16.10
2022-11-28T06:43:43.318Z,17.70
2022-11-28T06:46:19.732Z,17.70
2022-11-28T06:48:49.224Z,16.73
2022-11-28T06:51:17.850Z,18.50
2022-11-28T06:53:45.216Z,17.37
2022-11-28T06:56:19.057Z,16.90
2022-11-28T06:58:47.030Z,17.17
2022-11-28T07:01:15.941Z,17.07
2022-11-28T07:03:44.669Z,17.13
2022-11-28T07:06:14.148Z,16.83
2022-11-28T07:08:42.433Z,17.13
2022-11-28T07:11:15.905Z,15.60
2022-11-28T07:13:45.901Z,17.27
2022-11-28T07:16:29.082Z,16.37
2022-11-28T07:18:57.271Z,19.10
2022-11-28T07:21:25.419Z,17.70
2022-11-28T07:23:53.413Z,17.00
2022-11-28T07:26:22.134Z,17.60
2022-11-28T07:28:50.329Z,16.67
2022-11-28T07:31:25.483Z,15.83
2022-11-28T07:33:53.005Z,15.67
2022-11-28T07:36:23.453Z,18.37
2022-11-28T07:38:56.191Z,17.80
2022-11-28T07:41:26.984Z,18.10
2022-11-28T07:44:00.047Z,17.37
2022-11-28T07:46:29.393Z,18.73
2022-11-28T07:48:57.284Z,17.27
2022-11-28T07:51:27.300Z,17.17
2022-11-28T07:53:54.930Z,18.50
2022-11-28T07:56:25.034Z,19.47
2022-11-28T07:58:52.847Z,20.40
2022-11-28T08:01:23.340Z,17.83
2022-11-28T08:03:52.160Z,19.90
2022-11-28T08:06:21.834Z,18.93
2022-11-28T08:08:49.844Z,19.10
2022-11-28T08:11:18.894Z,18.63
2022-11-28T08:13:46.485Z,19.87
2022-11-28T08:16:22.695Z,17.13
2022-11-28T08:18:51.368Z,18.70
2022-11-28T08:21:24.940Z,17.83
2022-11-28T08:23:53.719Z,18.47
2022-11-28T08:26:27.483Z,17.93
2022-11-28T08:28:56.628Z,18.20
2022-11-28T08:31:27.106Z,16.77
2022-11-28T08:33:56.087Z,19.93
2022-11-28T08:36:23.485Z,15.67
2022-11-28T08:39:03.898Z,16.80
2022-11-28T08:41:41.566Z,19.20
2022-11-28T08:44:09.409Z,16.97
2022-11-28T08:46:37.049Z,15.93
2022-11-28T08:49:04.858Z,16.90
2022-11-28T08:51:32.390Z,33.03
2022-11-28T08:54:00.184Z,24.20
2022-11-28T08:56:28.328Z,19.20
2022-11-28T08:58:59.646Z,17.43
2022-11-28T09:01:28.001Z,17.90
2022-11-28T09:03:56.853Z,19.27
2022-11-28T09:06:25.098Z,19.63
2022-11-28T09:08:53.968Z,14.67
2022-11-28T09:11:22.874Z,16.30
2022-11-28T09:13:50.862Z,15.70
2022-11-28T09:16:18.614Z,13.63
2022-11-28T09:18:46.087Z,13.40
2022-11-28T09:21:15.503Z,14.50
2022-11-28T09:23:44.775Z,14.53
2022-11-28T09:26:24.685Z,18.03
2022-11-28T09:28:54.128Z,15.03
2022-11-28T09:31:21.851Z,13.80
2022-11-28T09:33:49.535Z,15.43
2022-11-28T09:36:19.990Z,14.90
2022-11-28T09:38:47.882Z,12.97
2022-11-28T09:41:32.239Z,12.43
2022-11-28T09:44:07.363Z,13.23
2022-11-28T09:46:37.482Z,13.87
2022-11-28T09:49:19.285Z,17.03
2022-11-28T09:52:18.894Z,13.80
2022-11-28T09:55:12.753Z,12.77
2022-11-28T09:57:47.935Z,12.20
2022-11-28T10:00:33.962Z,14.27
2022-11-28T10:03:16.160Z,12.70
2022-11-28T10:06:09.204Z,12.77
2022-11-28T10:09:06.860Z,12.57
2022-11-28T10:12:06.639Z,14.70
2022-11-28T10:15:08.839Z,14.30
2022-11-28T10:17:56.404Z,12.33
2022-11-28T10:20:27.808Z,13.37
2022-11-28T10:23:01.263Z,16.80
2022-11-28T10:25:41.160Z,16.53
2022-11-28T10:28:16.699Z,18.73
2022-11-28T10:30:51.415Z,13.53
2022-11-28T10:33:26.975Z,13.23
2022-11-28T10:36:02.700Z,28.30
2022-11-28T10:38:34.231Z,13.17
2022-11-28T10:41:06.776Z,10.27
2022-11-28T10:43:59.538Z,10.70
2022-11-28T10:47:07.077Z,8.13
2022-11-28T10:49:53.260Z,8.87
2022-11-28T10:52:29.428Z,12.23
2022-11-28T10:55:33.353Z,12.10
2022-11-28T10:58:24.052Z,11.90
2022-11-28T11:00:56.891Z,13.17
2022-11-28T11:03:31.070Z,10.63
2022-11-28T11:05:59.754Z,10.00
2022-11-28T11:08:29.948Z,10.87
2022-11-28T11:11:33.591Z,9.50
2022-11-28T11:14:02.193Z,10.40
2022-11-28T11:16:55.900Z,10.17
2022-11-28T11:19:34.030Z,9.57
2022-11-28T11:22:05.660Z,11.73
2022-11-28T11:24:33.775Z,11.20
2022-11-28T11:27:18.326Z,10.40
2022-11-28T11:29:48.210Z,10.30
2022-11-28T11:32:29.827Z,10.13
2022-11-28T11:34:58.585Z,8.93
2022-11-28T11:37:28.899Z,9.53
2022-11-28T11:39:56.301Z,11.13
2022-11-28T11:42:26.668Z,10.43
2022-11-28T11:44:54.580Z,11.20
2022-11-28T11:47:42.553Z,10.80
2022-11-28T11:50:18.582Z,13.97
2022-11-28T11:53:00.832Z,13.83
2022-11-28T11:55:30.811Z,12.97
2022-11-28T11:58:05.523Z,12.63
2022-11-28T12:00:39.998Z,14.00
2022-11-28T12:03:23.697Z,13.47
2022-11-28T12:06:14.056Z,12.60
2022-11-28T12:09:07.263Z,10.18
2022-11-28T12:11:46.562Z,11.43
2022-11-28T12:14:23.566Z,12.50
2022-11-28T12:17:46.923Z,10.23
2022-11-28T12:20:11.224Z,13.13
2022-11-28T12:23:03.392Z,16.40
2022-11-28T12:26:09.976Z,16.48
2022-11-28T12:29:01.650Z,16.53
2022-11-28T12:31:36.465Z,18.40
2022-11-28T12:34:45.556Z,18.50
2022-11-28T12:37:22.136Z,21.30
2022-11-28T12:40:10.532Z,20.83
2022-11-28T12:43:07.113Z,21.50
2022-11-28T12:45:42.891Z,21.97
2022-11-28T12:48:40.579Z,20.30
2022-11-28T12:51:45.934Z,21.93
2022-11-28T12:54:34.212Z,20.60
2022-11-28T12:57:10.127Z,21.97
2022-11-28T12:59:51.970Z,23.40
2022-11-28T13:02:57.219Z,21.33
2022-11-28T13:05:49.188Z,20.87
2022-11-28T13:08:22.549Z,20.90
2022-11-28T13:11:31.732Z,20.93
2022-11-28T13:14:27.620Z,20.63
2022-11-28T13:16:58.473Z,21.50
2022-11-28T13:19:41.763Z,19.43
2022-11-28T13:22:38.112Z,21.27
2022-11-28T13:25:43.619Z,21.90
2022-11-28T13:28:23.715Z,20.40
2022-11-28T13:30:56.256Z,22.47
2022-11-28T13:33:59.111Z,20.60
2022-11-28T13:40:07.777Z,21.30
2022-11-28T13:43:17.959Z,23.43
2022-11-28T13:45:47.017Z,21.33
2022-11-28T13:51:35.765Z,22.43
2022-11-28T13:54:19.205Z,22.37
2022-11-28T13:57:03.594Z,20.73
2022-11-28T13:59:31.782Z,21.20
2022-11-28T14:02:03.296Z,20.30
2022-11-28T14:04:32.772Z,19.37
2022-11-28T14:07:07.717Z,23.57
2022-11-28T14:10:07.376Z,26.00
2022-11-28T14:13:12.348Z,21.30
2022-11-28T14:16:11.336Z,22.83
2022-11-28T14:19:02.797Z,21.53
2022-11-28T14:21:46.830Z,21.27
2022-11-28T14:24:48.504Z,22.10
2022-11-28T14:27:25.229Z,22.27
2022-11-28T14:29:55.621Z,23.03
2022-11-28T14:32:37.914Z,22.07
2022-11-28T14:35:15.422Z,23.90
2022-11-28T14:37:56.137Z,20.67
2022-11-28T14:40:59.271Z,23.47
2022-11-28T14:43:36.910Z,22.47
2022-11-28T14:46:16.346Z,24.77
2022-11-28T14:48:59.124Z,23.97
2022-11-28T14:51:48.511Z,24.40
2022-11-28T14:54:37.985Z,22.83
2022-11-28T14:57:32.974Z,22.33
2022-11-28T15:00:08.179Z,24.00
2022-11-28T15:03:02.340Z,24.70
2022-11-28T15:05:49.882Z,23.20
2022-11-28T15:08:46.149Z,25.37
2022-11-28T15:11:41.066Z,23.70
2022-11-28T15:14:20.660Z,24.73
2022-11-28T15:16:54.804Z,26.27
2022-11-28T15:19:33.438Z,25.10
2022-11-28T15:22:01.677Z,23.40
2022-11-28T15:24:37.603Z,23.47
2022-11-28T15:27:07.975Z,25.53
2022-11-28T15:29:36.742Z,23.00
2022-11-28T15:32:07.701Z,22.93
2022-11-28T15:34:37.554Z,23.33
2022-11-28T15:37:07.643Z,26.63
2022-11-28T15:39:40.336Z,25.87
2022-11-28T15:42:23.933Z,22.40
2022-11-28T15:45:00.315Z,25.90
2022-11-28T15:47:28.842Z,25.03
2022-11-28T15:50:29.923Z,23.83
2022-11-28T15:53:02.028Z,25.40
2022-11-28T15:55:33.167Z,23.30
2022-11-28T15:58:30.307Z,27.33
2022-11-28T16:01:25.722Z,22.80
2022-11-28T16:04:07.830Z,25.50
2022-11-28T16:06:38.597Z,25.00
2022-11-28T16:09:23.496Z,23.57
2022-11-28T16:11:55.779Z,26.13
2022-11-28T16:14:33.082Z,26.57
2022-11-28T16:17:04.982Z,27.90
2022-11-28T16:19:39.695Z,26.23
2022-11-28T16:22:17.267Z,29.67
2022-11-28T16:24:47.998Z,28.20
2022-11-28T16:27:37.781Z,29.70
2022-11-28T16:30:26.905Z,27.43
2022-11-28T16:32:59.354Z,27.03
2022-11-28T16:35:28.992Z,29.70
2022-11-28T16:38:18.266Z,29.57
2022-11-28T16:40:46.409Z,31.63
2022-11-28T16:43:22.090Z,29.33
2022-11-28T16:46:01.286Z,28.60
2022-11-28T16:48:35.340Z,29.83
2022-11-28T16:51:03.115Z,27.80
2022-11-28T16:54:00.889Z,31.53
2022-11-28T16:56:31.613Z,27.67
2022-11-28T16:59:08.067Z,29.03
2022-11-28T17:01:36.715Z,28.57
2022-11-28T17:04:05.669Z,28.67
2022-11-28T17:06:38.031Z,29.13
2022-11-28T17:09:07.948Z,31.43
2022-11-28T17:11:38.839Z,28.97
2022-11-28T17:14:13.046Z,30.93
2022-11-28T17:16:43.034Z,30.73
2022-11-28T17:19:12.855Z,31.40
2022-11-28T17:21:51.413Z,31.73
2022-11-28T17:24:25.601Z,30.43
2022-11-28T17:26:54.872Z,29.23
2022-11-28T17:29:23.389Z,29.70
2022-11-28T17:31:55.301Z,30.50
2022-11-28T17:34:28.902Z,29.10
2022-11-28T17:36:58.475Z,29.57
2022-11-28T17:39:28.718Z,27.33
2022-11-28T17:42:00.753Z,28.50
2022-11-28T17:44:34.226Z,31.50
2022-11-28T17:47:04.725Z,25.80
2022-11-28T17:49:39.592Z,29.53
2022-11-28T17:52:11.779Z,28.37
2022-11-28T17:54:40.873Z,27.40
2022-11-28T17:57:10.061Z,31.50
2022-11-28T17:59:40.975Z,28.70
2022-11-28T18:02:11.542Z,27.10
2022-11-28T18:04:39.886Z,29.23
2022-11-28T18:07:12.536Z,29.77
2022-11-28T18:09:44.436Z,30.37
2022-11-28T18:12:14.942Z,28.17
2022-11-28T18:14:46.416Z,26.60
2022-11-28T18:17:14.827Z,30.40
2022-11-28T18:19:45.202Z,27.13
2022-11-28T18:22:17.049Z,26.40
2022-11-28T18:24:49.162Z,28.27
2022-11-28T18:27:17.633Z,28.77
2022-11-28T18:29:46.188Z,26.97
2022-11-28T18:32:15.708Z,25.60
2022-11-28T18:34:45.281Z,26.50
2022-11-28T18:37:13.842Z,26.97
2022-11-28T18:39:44.102Z,27.00
2022-11-28T18:42:18.515Z,25.83
2022-11-28T18:44:48.684Z,25.27
2022-11-28T18:47:20.974Z,26.20
2022-11-28T18:49:52.746Z,24.90
2022-11-28T18:52:20.891Z,24.37
2022-11-28T18:55:05.304Z,24.53
2022-11-28T18:57:38.120Z,25.97
2022-11-28T19:00:24.938Z,26.20
2022-11-28T19:03:00.871Z,25.43
2022-11-28T19:05:39.234Z,25.27
2022-11-28T19:08:15.621Z,26.33
2022-11-28T19:10:51.504Z,24.77
2022-11-28T19:13:24.897Z,25.60
2022-11-28T19:16:03.965Z,24.73
2022-11-28T19:18:40.322Z,24.57
2022-11-28T19:21:30.213Z,25.80
2022-11-28T19:24:02.856Z,26.87
2022-11-28T19:26:46.591Z,28.20
2022-11-28T19:29:33.715Z,25.67
2022-11-28T19:32:07.291Z,26.47
2022-11-28T19:37:39.603Z,26.07
2022-11-28T19:40:12.054Z,26.47
2022-11-28T19:42:49.719Z,26.57
2022-11-28T19:45:26.762Z,26.97
2022-11-28T19:48:04.184Z,27.60
2022-11-28T19:50:37.940Z,27.57
2022-11-28T19:53:19.638Z,30.47
2022-11-28T19:56:02.255Z,28.93
2022-11-28T19:58:35.019Z,28.87
2022-11-28T20:01:19.395Z,28.80
2022-11-28T20:04:01.662Z,26.40
2022-11-28T20:06:37.903Z,27.63
2022-11-28T20:09:14.479Z,28.47
2022-11-28T20:11:49.153Z,27.00
2022-11-28T20:14:27.155Z,27.77
2022-11-28T20:19:55.559Z,28.03
2022-11-28T20:22:26.203Z,28.47
2022-11-28T20:24:57.062Z,30.57
2022-11-28T20:27:33.194Z,30.63
2022-11-28T20:30:02.726Z,32.90
2022-11-28T20:32:34.589Z,29.93
2022-11-28T20:35:13.580Z,29.77
2022-11-28T20:37:46.543Z,32.33
2022-11-28T20:40:22.578Z,32.27
2022-11-28T20:42:52.683Z,29.63
2022-11-28T20:45:31.828Z,33.83
2022-11-28T20:48:11.669Z,34.27
2022-11-28T20:50:44.216Z,34.90
2022-11-28T20:53:26.566Z,36.63
2022-11-28T20:56:05.262Z,36.20
2022-11-28T20:58:41.277Z,37.23
2022-11-28T21:01:36.615Z,34.33
2022-11-28T21:04:17.973Z,34.03
2022-11-28T21:06:59.502Z,38.47
2022-11-28T21:09:32.829Z,34.73
2022-11-28T21:12:01.120Z,36.70
2022-11-28T21:14:35.003Z,33.43
2022-11-28T21:22:34.561Z,35.00
2022-11-28T21:25:03.564Z,39.00
2022-11-28T21:27:36.343Z,35.30
2022-11-28T21:30:08.372Z,36.80
2022-11-28T21:32:43.816Z,35.03
2022-11-28T21:35:16.312Z,34.20
2022-11-28T21:37:46.239Z,35.90
2022-11-28T21:40:19.757Z,36.57
2022-11-28T21:42:57.070Z,36.83
2022-11-28T21:45:31.370Z,35.23
2022-11-28T21:48:04.978Z,34.60
2022-11-28T21:50:37.527Z,33.50
2022-11-28T21:53:09.122Z,35.20
2022-11-28T21:55:44.982Z,34.47
2022-11-28T21:58:21.143Z,35.93
2022-11-28T22:01:02.878Z,33.50
2022-11-28T22:03:34.363Z,36.67
2022-11-28T22:06:33.238Z,34.57
2022-11-28T22:09:08.760Z,32.30
2022-11-28T22:11:51.807Z,35.57
2022-11-28T22:14:36.694Z,32.90
2022-11-28T22:20:00.880Z,35.93
2022-11-28T22:22:34.439Z,35.87
2022-11-28T22:25:09.222Z,34.20
2022-11-28T22:27:42.424Z,34.47
2022-11-28T22:30:16.048Z,32.87
2022-11-28T22:32:48.427Z,34.07
2022-11-28T22:35:22.727Z,33.77
2022-11-28T22:37:57.259Z,34.70
2022-11-28T22:40:29.022Z,32.87
2022-11-28T22:43:02.870Z,33.37
2022-11-28T22:45:34.979Z,34.80
2022-11-28T22:48:14.424Z,34.03
2022-11-28T22:50:51.018Z,31.70
2022-11-28T22:53:23.808Z,34.77
2022-11-28T22:55:56.792Z,33.47
2022-11-28T23:01:10.847Z,33.87
2022-11-28T23:06:32.783Z,34.97
2022-11-28T23:09:08.445Z,34.40
2022-11-28T23:11:50.178Z,32.07
2022-11-28T23:14:21.513Z,36.47
2022-11-28T23:16:52.473Z,36.23
2022-11-28T23:19:22.498Z,35.80
2022-11-28T23:21:53.481Z,37.70
2022-11-28T23:24:23.888Z,35.70
2022-11-28T23:26:52.871Z,34.00
2022-11-28T23:29:23.836Z,36.30
2022-11-28T23:31:53.853Z,35.07
2022-11-28T23:37:07.710Z,33.57
2022-11-28T23:39:38.845Z,36.10
2022-11-28T23:42:12.376Z,34.70
2022-11-28T23:44:52.487Z,36.00
2022-11-28T23:47:22.834Z,37.73
2022-11-28T23:49:56.379Z,36.83
2022-11-28T23:55:09.645Z,36.90
2022-11-28T23:57:49.249Z,39.07
